sensor_id;sensor_type;location;lat;lon;timestamp;P1;durP1;ratioP1;P2;durP2;ratioP2
22665;SDS011;11499;49.486;11.104;2023-02-18T00:00:26;2.90;;;2.67;;
22665;SDS011;11499;49.486;11.104;2023-02-18T00:02:52;2.97;;;2.77;;
22665;SDS011;11499;49.486;11.104;2023-02-18T00:05:19;3.60;;;2.83;;
22665;SDS011;11499;49.486;11.104;2023-02-18T00:07:46;2.90;;;2.40;;
22665;SDS011;11499;49.486;11.104;2023-02-18T00:10:12;2.73;;;2.53;;
22665;SDS011;11499;49.486;11.104;2023-02-18T00:12:39;3.50;;;2.97;;
22665;SDS011;11499;49.486;11.104;2023-02-18T00:15:05;3.10;;;2.80;;
22665;SDS011;11499;49.486;11.104;2023-02-18T00:17:31;3.13;;;2.93;;
22665;SDS011;11499;49.486;11.104;2023-02-18T00:19:57;3.70;;;2.70;;
22665;SDS011;11499;49.486;11.104;2023-02-18T00:22:23;3.17;;;2.87;;
22665;SDS011;11499;49.486;11.104;2023-02-18T00:24:49;3.17;;;2.87;;
22665;SDS011;11499;49.486;11.104;2023-02-18T00:29:57;3.47;;;3.17;;
22665;SDS011;11499;49.486;11.104;2023-02-18T00:32:22;3.83;;;3.10;;
22665;SDS011;11499;49.486;11.104;2023-02-18T00:34:48;3.20;;;2.90;;
22665;SDS011;11499;49.486;11.104;2023-02-18T00:37:14;3.37;;;3.07;;
22665;SDS011;11499;49.486;11.104;2023-02-18T00:39:39;3.00;;;2.70;;
22665;SDS011;11499;49.486;11.104;2023-02-18T00:42:04;3.23;;;3.00;;
22665;SDS011;11499;49.486;11.104;2023-02-18T00:44:30;3.63;;;3.33;;
22665;SDS011;11499;49.486;11.104;2023-02-18T00:46:55;3.30;;;3.10;;
22665;SDS011;11499;49.486;11.104;2023-02-18T00:49:21;3.53;;;3.20;;
22665;SDS011;11499;49.486;11.104;2023-02-18T00:51:46;3.67;;;3.20;;
22665;SDS011;11499;49.486;11.104;2023-02-18T00:57:14;4.00;;;3.03;;
22665;SDS011;11499;49.486;11.104;2023-02-18T00:59:39;3.30;;;3.00;;
22665;SDS011;11499;49.486;11.104;2023-02-18T01:02:05;3.53;;;3.23;;
22665;SDS011;11499;49.486;11.104;2023-02-18T01:04:31;3.60;;;3.30;;
22665;SDS011;11499;49.486;11.104;2023-02-18T01:06:57;3.17;;;2.97;;
22665;SDS011;11499;49.486;11.104;2023-02-18T01:09:22;3.90;;;3.20;;
22665;SDS011;11499;49.486;11.104;2023-02-18T01:11:49;3.57;;;3.27;;
22665;SDS011;11499;49.486;11.104;2023-02-18T01:14:15;3.13;;;2.90;;
22665;SDS011;11499;49.486;11.104;2023-02-18T01:16:41;3.27;;;2.97;;
22665;SDS011;11499;49.486;11.104;2023-02-18T01:19:06;3.67;;;3.30;;
22665;SDS011;11499;49.486;11.104;2023-02-18T01:24:21;3.60;;;2.97;;
22665;SDS011;11499;49.486;11.104;2023-02-18T01:26:46;3.20;;;2.90;;
22665;SDS011;11499;49.486;11.104;2023-02-18T01:29:12;3.40;;;3.10;;
22665;SDS011;11499;49.486;11.104;2023-02-18T01:31:37;3.30;;;3.00;;
22665;SDS011;11499;49.486;11.104;2023-02-18T01:34:03;3.23;;;2.93;;
22665;SDS011;11499;49.486;11.104;2023-02-18T01:36:28;3.43;;;2.70;;
22665;SDS011;11499;49.486;11.104;2023-02-18T01:38:54;3.77;;;3.10;;
22665;SDS011;11499;49.486;11.104;2023-02-18T01:41:19;3.37;;;3.07;;
22665;SDS011;11499;49.486;11.104;2023-02-18T01:43:45;3.63;;;3.33;;
22665;SDS011;11499;49.486;11.104;2023-02-18T01:51:27;4.40;;;4.00;;
22665;SDS011;11499;49.486;11.104;2023-02-18T01:53:58;4.03;;;3.73;;
22665;SDS011;11499;49.486;11.104;2023-02-18T01:56:34;4.30;;;3.90;;
22665;SDS011;11499;49.486;11.104;2023-02-18T01:59:07;4.30;;;3.90;;
22665;SDS011;11499;49.486;11.104;2023-02-18T02:01:36;5.73;;;4.77;;
22665;SDS011;11499;49.486;11.104;2023-02-18T02:04:03;4.47;;;4.07;;
22665;SDS011;11499;49.486;11.104;2023-02-18T02:06:29;4.77;;;4.37;;
22665;SDS011;11499;49.486;11.104;2023-02-18T02:08:56;4.73;;;4.33;;
22665;SDS011;11499;49.486;11.104;2023-02-18T02:11:28;4.40;;;4.00;;
22665;SDS011;11499;49.486;11.104;2023-02-18T02:14:37;4.20;;;3.90;;
22665;SDS011;11499;49.486;11.104;2023-02-18T02:28:03;4.43;;;4.10;;
22665;SDS011;11499;49.486;11.104;2023-02-18T02:36:28;4.03;;;3.73;;
22665;SDS011;11499;49.486;11.104;2023-02-18T02:39:13;4.17;;;3.87;;
22665;SDS011;11499;49.486;11.104;2023-02-18T02:48:09;4.10;;;3.70;;
22665;SDS011;11499;49.486;11.104;2023-02-18T02:53:22;4.40;;;3.80;;
22665;SDS011;11499;49.486;11.104;2023-02-18T02:55:51;4.57;;;4.07;;
22665;SDS011;11499;49.486;11.104;2023-02-18T02:58:18;3.70;;;3.40;;
22665;SDS011;11499;49.486;11.104;2023-02-18T03:00:49;4.73;;;3.60;;
22665;SDS011;11499;49.486;11.104;2023-02-18T03:06:03;3.40;;;3.10;;
22665;SDS011;11499;49.486;11.104;2023-02-18T03:08:53;3.57;;;2.87;;
22665;SDS011;11499;49.486;11.104;2023-02-18T03:17:36;2.70;;;2.50;;
22665;SDS011;11499;49.486;11.104;2023-02-18T03:20:54;3.40;;;3.10;;
22665;SDS011;11499;49.486;11.104;2023-02-18T03:23:02;2.87;;;2.57;;
22665;SDS011;11499;49.486;11.104;2023-02-18T03:25:32;2.70;;;2.50;;
22665;SDS011;11499;49.486;11.104;2023-02-18T03:28:01;2.60;;;2.40;;
22665;SDS011;11499;49.486;11.104;2023-02-18T03:30:34;2.30;;;2.10;;
22665;SDS011;11499;49.486;11.104;2023-02-18T03:33:06;2.30;;;2.10;;
22665;SDS011;11499;49.486;11.104;2023-02-18T03:35:35;2.17;;;1.97;;
22665;SDS011;11499;49.486;11.104;2023-02-18T03:38:17;1.87;;;1.77;;
22665;SDS011;11499;49.486;11.104;2023-02-18T03:42:42;2.40;;;1.73;;
22665;SDS011;11499;49.486;11.104;2023-02-18T03:45:08;2.00;;;1.80;;
22665;SDS011;11499;49.486;11.104;2023-02-18T03:47:34;2.03;;;1.90;;
22665;SDS011;11499;49.486;11.104;2023-02-18T03:49:59;1.90;;;1.80;;
22665;SDS011;11499;49.486;11.104;2023-02-18T03:52:25;1.60;;;1.50;;
22665;SDS011;11499;49.486;11.104;2023-02-18T03:54:51;1.90;;;1.80;;
22665;SDS011;11499;49.486;11.104;2023-02-18T03:57:16;1.80;;;1.70;;
22665;SDS011;11499;49.486;11.104;2023-02-18T03:59:42;2.07;;;1.90;;
22665;SDS011;11499;49.486;11.104;2023-02-18T04:02:08;1.90;;;1.60;;
22665;SDS011;11499;49.486;11.104;2023-02-18T04:04:33;2.07;;;1.90;;
22665;SDS011;11499;49.486;11.104;2023-02-18T04:09:37;1.60;;;1.50;;
22665;SDS011;11499;49.486;11.104;2023-02-18T04:12:03;1.87;;;1.77;;
22665;SDS011;11499;49.486;11.104;2023-02-18T04:14:28;1.90;;;1.80;;
22665;SDS011;11499;49.486;11.104;2023-02-18T04:16:54;2.30;;;2.10;;
22665;SDS011;11499;49.486;11.104;2023-02-18T04:19:20;2.90;;;1.90;;
22665;SDS011;11499;49.486;11.104;2023-02-18T04:21:45;2.10;;;1.90;;
22665;SDS011;11499;49.486;11.104;2023-02-18T04:24:10;2.20;;;2.00;;
22665;SDS011;11499;49.486;11.104;2023-02-18T04:26:36;2.30;;;2.10;;
22665;SDS011;11499;49.486;11.104;2023-02-18T04:29:02;2.43;;;2.00;;
22665;SDS011;11499;49.486;11.104;2023-02-18T04:31:28;2.40;;;2.20;;
22665;SDS011;11499;49.486;11.104;2023-02-18T04:36:52;2.47;;;2.27;;
22665;SDS011;11499;49.486;11.104;2023-02-18T04:39:17;4.10;;;2.10;;
22665;SDS011;11499;49.486;11.104;2023-02-18T04:41:43;2.77;;;2.13;;
22665;SDS011;11499;49.486;11.104;2023-02-18T04:44:08;2.53;;;2.33;;
22665;SDS011;11499;49.486;11.104;2023-02-18T04:46:34;2.40;;;2.20;;
22665;SDS011;11499;49.486;11.104;2023-02-18T04:49:00;2.50;;;2.30;;
22665;SDS011;11499;49.486;11.104;2023-02-18T04:51:25;2.40;;;2.20;;
22665;SDS011;11499;49.486;11.104;2023-02-18T04:53:51;2.70;;;2.50;;
22665;SDS011;11499;49.486;11.104;2023-02-18T04:56:16;3.10;;;2.20;;
22665;SDS011;11499;49.486;11.104;2023-02-18T04:58:42;2.87;;;2.60;;
22665;SDS011;11499;49.486;11.104;2023-02-18T05:03:50;3.30;;;2.40;;
22665;SDS011;11499;49.486;11.104;2023-02-18T05:06:15;3.10;;;2.80;;
22665;SDS011;11499;49.486;11.104;2023-02-18T05:08:40;3.70;;;2.70;;
22665;SDS011;11499;49.486;11.104;2023-02-18T05:11:07;2.70;;;2.50;;
22665;SDS011;11499;49.486;11.104;2023-02-18T05:13:32;2.80;;;2.50;;
22665;SDS011;11499;49.486;11.104;2023-02-18T05:15:58;2.83;;;2.63;;
22665;SDS011;11499;49.486;11.104;2023-02-18T05:18:24;2.80;;;2.60;;
22665;SDS011;11499;49.486;11.104;2023-02-18T05:20:50;3.10;;;2.90;;
22665;SDS011;11499;49.486;11.104;2023-02-18T05:23:15;3.20;;;2.90;;
22665;SDS011;11499;49.486;11.104;2023-02-18T05:25:42;3.50;;;3.20;;
22665;SDS011;11499;49.486;11.104;2023-02-18T05:31:15;3.37;;;3.07;;
22665;SDS011;11499;49.486;11.104;2023-02-18T05:33:41;3.77;;;3.47;;
22665;SDS011;11499;49.486;11.104;2023-02-18T05:36:07;3.33;;;3.03;;
22665;SDS011;11499;49.486;11.104;2023-02-18T05:38:32;3.63;;;3.17;;
22665;SDS011;11499;49.486;11.104;2023-02-18T05:40:58;4.27;;;3.07;;
22665;SDS011;11499;49.486;11.104;2023-02-18T05:43:24;3.77;;;2.90;;
22665;SDS011;11499;49.486;11.104;2023-02-18T05:45:49;3.40;;;3.10;;
22665;SDS011;11499;49.486;11.104;2023-02-18T05:48:15;5.10;;;3.53;;
22665;SDS011;11499;49.486;11.104;2023-02-18T05:50:40;3.67;;;3.37;;
22665;SDS011;11499;49.486;11.104;2023-02-18T05:53:06;3.20;;;2.90;;
22665;SDS011;11499;49.486;11.104;2023-02-18T05:58:11;4.33;;;3.13;;
22665;SDS011;11499;49.486;11.104;2023-02-18T06:00:37;3.57;;;3.27;;
22665;SDS011;11499;49.486;11.104;2023-02-18T06:03:03;3.50;;;3.20;;
22665;SDS011;11499;49.486;11.104;2023-02-18T06:05:28;3.40;;;3.10;;
22665;SDS011;11499;49.486;11.104;2023-02-18T06:07:54;3.50;;;3.20;;
22665;SDS011;11499;49.486;11.104;2023-02-18T06:10:19;2.87;;;2.67;;
22665;SDS011;11499;49.486;11.104;2023-02-18T06:12:45;3.70;;;3.30;;
22665;SDS011;11499;49.486;11.104;2023-02-18T06:15:10;3.50;;;3.20;;
22665;SDS011;11499;49.486;11.104;2023-02-18T06:17:36;3.20;;;2.90;;
22665;SDS011;11499;49.486;11.104;2023-02-18T06:20:01;3.17;;;2.87;;
22665;SDS011;11499;49.486;11.104;2023-02-18T06:25:34;3.93;;;3.20;;
22665;SDS011;11499;49.486;11.104;2023-02-18T06:28:00;3.13;;;2.80;;
22665;SDS011;11499;49.486;11.104;2023-02-18T06:30:25;3.60;;;3.03;;
22665;SDS011;11499;49.486;11.104;2023-02-18T06:32:51;3.93;;;3.60;;
22665;SDS011;11499;49.486;11.104;2023-02-18T06:35:16;3.60;;;3.30;;
22665;SDS011;11499;49.486;11.104;2023-02-18T06:37:42;3.30;;;3.00;;
22665;SDS011;11499;49.486;11.104;2023-02-18T06:40:08;3.10;;;2.90;;
22665;SDS011;11499;49.486;11.104;2023-02-18T06:42:34;4.13;;;3.40;;
22665;SDS011;11499;49.486;11.104;2023-02-18T06:45:00;3.40;;;3.10;;
22665;SDS011;11499;49.486;11.104;2023-02-18T06:47:25;3.47;;;3.17;;
22665;SDS011;11499;49.486;11.104;2023-02-18T06:52:33;3.80;;;3.50;;
22665;SDS011;11499;49.486;11.104;2023-02-18T06:54:59;4.00;;;3.60;;
22665;SDS011;11499;49.486;11.104;2023-02-18T06:57:25;3.70;;;3.40;;
22665;SDS011;11499;49.486;11.104;2023-02-18T06:59:50;4.00;;;3.63;;
22665;SDS011;11499;49.486;11.104;2023-02-18T07:02:16;4.23;;;3.83;;
22665;SDS011;11499;49.486;11.104;2023-02-18T07:04:41;4.67;;;4.13;;
22665;SDS011;11499;49.486;11.104;2023-02-18T07:07:09;4.20;;;3.90;;
22665;SDS011;11499;49.486;11.104;2023-02-18T07:09:34;4.80;;;4.30;;
22665;SDS011;11499;49.486;11.104;2023-02-18T07:12:00;4.50;;;4.10;;
22665;SDS011;11499;49.486;11.104;2023-02-18T07:14:25;5.13;;;4.63;;
22665;SDS011;11499;49.486;11.104;2023-02-18T07:20:04;5.57;;;5.10;;
22665;SDS011;11499;49.486;11.104;2023-02-18T07:22:31;5.30;;;4.80;;
22665;SDS011;11499;49.486;11.104;2023-02-18T07:24:57;5.13;;;4.73;;
22665;SDS011;11499;49.486;11.104;2023-02-18T07:27:22;6.23;;;5.63;;
22665;SDS011;11499;49.486;11.104;2023-02-18T07:29:48;6.57;;;5.53;;
22665;SDS011;11499;49.486;11.104;2023-02-18T07:32:14;6.00;;;5.50;;
22665;SDS011;11499;49.486;11.104;2023-02-18T07:34:41;5.70;;;5.20;;
22665;SDS011;11499;49.486;11.104;2023-02-18T07:37:07;6.23;;;5.73;;
22665;SDS011;11499;49.486;11.104;2023-02-18T07:39:39;6.10;;;5.50;;
22665;SDS011;11499;49.486;11.104;2023-02-18T07:42:05;6.07;;;5.50;;
22665;SDS011;11499;49.486;11.104;2023-02-18T07:47:13;6.83;;;6.23;;
22665;SDS011;11499;49.486;11.104;2023-02-18T07:49:41;6.83;;;6.23;;
22665;SDS011;11499;49.486;11.104;2023-02-18T07:52:06;5.70;;;5.30;;
22665;SDS011;11499;49.486;11.104;2023-02-18T07:54:32;6.17;;;5.57;;
22665;SDS011;11499;49.486;11.104;2023-02-18T07:56:57;6.33;;;5.83;;
22665;SDS011;11499;49.486;11.104;2023-02-18T07:59:23;6.17;;;5.57;;
22665;SDS011;11499;49.486;11.104;2023-02-18T08:01:48;6.20;;;5.60;;
22665;SDS011;11499;49.486;11.104;2023-02-18T08:04:14;7.00;;;5.77;;
22665;SDS011;11499;49.486;11.104;2023-02-18T08:06:41;6.27;;;5.77;;
22665;SDS011;11499;49.486;11.104;2023-02-18T08:09:10;6.27;;;5.37;;
22665;SDS011;11499;49.486;11.104;2023-02-18T08:14:19;6.50;;;5.87;;
22665;SDS011;11499;49.486;11.104;2023-02-18T08:16:44;5.43;;;4.97;;
22665;SDS011;11499;49.486;11.104;2023-02-18T08:19:10;6.07;;;5.57;;
22665;SDS011;11499;49.486;11.104;2023-02-18T08:21:35;4.90;;;4.50;;
22665;SDS011;11499;49.486;11.104;2023-02-18T08:24:01;5.63;;;5.13;;
22665;SDS011;11499;49.486;11.104;2023-02-18T08:26:27;5.23;;;4.83;;
22665;SDS011;11499;49.486;11.104;2023-02-18T08:28:52;5.53;;;4.93;;
22665;SDS011;11499;49.486;11.104;2023-02-18T08:31:19;4.93;;;4.53;;
22665;SDS011;11499;49.486;11.104;2023-02-18T08:33:45;4.50;;;4.10;;
22665;SDS011;11499;49.486;11.104;2023-02-18T08:36:11;4.93;;;4.53;;
22665;SDS011;11499;49.486;11.104;2023-02-18T08:41:39;4.80;;;4.40;;
22665;SDS011;11499;49.486;11.104;2023-02-18T08:44:05;4.43;;;4.03;;
22665;SDS011;11499;49.486;11.104;2023-02-18T08:46:30;4.73;;;4.33;;
22665;SDS011;11499;49.486;11.104;2023-02-18T08:48:56;4.53;;;4.13;;
22665;SDS011;11499;49.486;11.104;2023-02-18T08:51:21;4.80;;;4.30;;
22665;SDS011;11499;49.486;11.104;2023-02-18T08:53:47;4.50;;;4.10;;
22665;SDS011;11499;49.486;11.104;2023-02-18T08:56:13;4.63;;;4.23;;
22665;SDS011;11499;49.486;11.104;2023-02-18T08:58:41;4.57;;;4.17;;
22665;SDS011;11499;49.486;11.104;2023-02-18T09:01:07;4.53;;;4.13;;
22665;SDS011;11499;49.486;11.104;2023-02-18T09:03:34;4.90;;;4.50;;
22665;SDS011;11499;49.486;11.104;2023-02-18T09:08:39;3.80;;;3.50;;
22665;SDS011;11499;49.486;11.104;2023-02-18T09:11:05;4.47;;;3.90;;
22665;SDS011;11499;49.486;11.104;2023-02-18T09:13:32;4.40;;;4.00;;
22665;SDS011;11499;49.486;11.104;2023-02-18T09:16:31;5.07;;;3.83;;
22665;SDS011;11499;49.486;11.104;2023-02-18T09:18:50;4.60;;;3.67;;
22665;SDS011;11499;49.486;11.104;2023-02-18T09:21:16;3.83;;;3.53;;
22665;SDS011;11499;49.486;11.104;2023-02-18T09:23:44;3.60;;;3.30;;
22665;SDS011;11499;49.486;11.104;2023-02-18T09:26:12;3.43;;;3.13;;
22665;SDS011;11499;49.486;11.104;2023-02-18T09:28:39;3.80;;;2.97;;
22665;SDS011;11499;49.486;11.104;2023-02-18T09:34:14;3.20;;;2.90;;
22665;SDS011;11499;49.486;11.104;2023-02-18T09:36:39;3.70;;;3.30;;
22665;SDS011;11499;49.486;11.104;2023-02-18T09:39:05;3.63;;;3.33;;
22665;SDS011;11499;49.486;11.104;2023-02-18T09:41:44;3.30;;;3.00;;
22665;SDS011;11499;49.486;11.104;2023-02-18T09:44:17;3.37;;;3.07;;
22665;SDS011;11499;49.486;11.104;2023-02-18T09:46:49;3.60;;;2.80;;
22665;SDS011;11499;49.486;11.104;2023-02-18T09:49:20;2.93;;;2.70;;
22665;SDS011;11499;49.486;11.104;2023-02-18T09:51:49;2.73;;;2.47;;
22665;SDS011;11499;49.486;11.104;2023-02-18T09:54:16;3.27;;;2.97;;
22665;SDS011;11499;49.486;11.104;2023-02-18T09:56:43;2.93;;;2.60;;
22665;SDS011;11499;49.486;11.104;2023-02-18T09:59:17;2.90;;;2.60;;
22665;SDS011;11499;49.486;11.104;2023-02-18T10:05:00;2.73;;;2.53;;
22665;SDS011;11499;49.486;11.104;2023-02-18T10:07:28;5.57;;;3.20;;
22665;SDS011;11499;49.486;11.104;2023-02-18T10:09:56;2.50;;;2.30;;
22665;SDS011;11499;49.486;11.104;2023-02-18T10:12:25;3.73;;;3.20;;
22665;SDS011;11499;49.486;11.104;2023-02-18T10:14:55;2.70;;;2.47;;
22665;SDS011;11499;49.486;11.104;2023-02-18T10:17:23;3.00;;;2.70;;
22665;SDS011;11499;49.486;11.104;2023-02-18T10:19:51;3.10;;;2.67;;
22665;SDS011;11499;49.486;11.104;2023-02-18T10:22:18;3.00;;;2.70;;
22665;SDS011;11499;49.486;11.104;2023-02-18T10:27:17;2.53;;;2.30;;
22665;SDS011;11499;49.486;11.104;2023-02-18T10:34:45;3.23;;;2.60;;
22665;SDS011;11499;49.486;11.104;2023-02-18T10:40:44;2.97;;;2.53;;
22665;SDS011;11499;49.486;11.104;2023-02-18T10:43:37;2.83;;;2.47;;
22665;SDS011;11499;49.486;11.104;2023-02-18T10:46:41;2.50;;;2.30;;
22665;SDS011;11499;49.486;11.104;2023-02-18T10:52:03;2.47;;;2.07;;
22665;SDS011;11499;49.486;11.104;2023-02-18T10:57:51;2.50;;;2.30;;
22665;SDS011;11499;49.486;11.104;2023-02-18T11:00:22;5.20;;;2.87;;
22665;SDS011;11499;49.486;11.104;2023-02-18T11:03:01;2.93;;;2.50;;
22665;SDS011;11499;49.486;11.104;2023-02-18T11:05:40;4.43;;;2.90;;
22665;SDS011;11499;49.486;11.104;2023-02-18T11:08:10;3.80;;;2.30;;
22665;SDS011;11499;49.486;11.104;2023-02-18T11:10:41;3.90;;;3.00;;
22665;SDS011;11499;49.486;11.104;2023-02-18T11:13:09;3.13;;;2.83;;
22665;SDS011;11499;49.486;11.104;2023-02-18T11:15:43;3.13;;;2.83;;
22665;SDS011;11499;49.486;11.104;2023-02-18T11:18:39;3.80;;;2.93;;
22665;SDS011;11499;49.486;11.104;2023-02-18T11:21:20;2.60;;;2.40;;
22665;SDS011;11499;49.486;11.104;2023-02-18T11:25:39;5.30;;;2.90;;
22665;SDS011;11499;49.486;11.104;2023-02-18T11:30:45;3.07;;;2.60;;
22665;SDS011;11499;49.486;11.104;2023-02-18T11:33:19;3.03;;;2.73;;
22665;SDS011;11499;49.486;11.104;2023-02-18T11:35:49;2.80;;;2.60;;
22665;SDS011;11499;49.486;11.104;2023-02-18T11:38:28;2.50;;;2.30;;
22665;SDS011;11499;49.486;11.104;2023-02-18T11:41:01;3.07;;;2.50;;
22665;SDS011;11499;49.486;11.104;2023-02-18T11:43:32;2.80;;;2.60;;
22665;SDS011;11499;49.486;11.104;2023-02-18T11:46:12;2.70;;;2.50;;
22665;SDS011;11499;49.486;11.104;2023-02-18T11:48:43;3.83;;;2.57;;
22665;SDS011;11499;49.486;11.104;2023-02-18T11:53:30;2.70;;;2.50;;
22665;SDS011;11499;49.486;11.104;2023-02-18T11:55:58;4.63;;;2.37;;
22665;SDS011;11499;49.486;11.104;2023-02-18T11:58:26;2.47;;;2.13;;
22665;SDS011;11499;49.486;11.104;2023-02-18T12:00:58;2.50;;;2.20;;
22665;SDS011;11499;49.486;11.104;2023-02-18T12:06:00;3.73;;;2.53;;
22665;SDS011;11499;49.486;11.104;2023-02-18T12:08:30;2.40;;;2.20;;
22665;SDS011;11499;49.486;11.104;2023-02-18T12:11:03;4.13;;;2.30;;
22665;SDS011;11499;49.486;11.104;2023-02-18T12:13:37;2.40;;;2.20;;
22665;SDS011;11499;49.486;11.104;2023-02-18T12:23:42;4.77;;;2.43;;
22665;SDS011;11499;49.486;11.104;2023-02-18T12:26:24;4.17;;;2.43;;
22665;SDS011;11499;49.486;11.104;2023-02-18T12:29:04;2.47;;;2.27;;
22665;SDS011;11499;49.486;11.104;2023-02-18T12:32:14;2.87;;;2.40;;
22665;SDS011;11499;49.486;11.104;2023-02-18T12:35:00;2.37;;;2.10;;
22665;SDS011;11499;49.486;11.104;2023-02-18T12:48:46;2.63;;;2.07;;
22665;SDS011;11499;49.486;11.104;2023-02-18T12:51:32;2.93;;;2.53;;
22665;SDS011;11499;49.486;11.104;2023-02-18T12:56:47;2.33;;;2.13;;
22665;SDS011;11499;49.486;11.104;2023-02-18T12:59:43;2.73;;;2.40;;
22665;SDS011;11499;49.486;11.104;2023-02-18T13:02:37;2.50;;;2.30;;
22665;SDS011;11499;49.486;11.104;2023-02-18T13:05:32;4.20;;;2.30;;
22665;SDS011;11499;49.486;11.104;2023-02-18T13:08:21;2.80;;;2.47;;
22665;SDS011;11499;49.486;11.104;2023-02-18T13:21:00;2.20;;;2.00;;
22665;SDS011;11499;49.486;11.104;2023-02-18T13:24:12;2.47;;;2.10;;
22665;SDS011;11499;49.486;11.104;2023-02-18T13:26:30;3.33;;;1.70;;
22665;SDS011;11499;49.486;11.104;2023-02-18T13:29:05;2.30;;;2.10;;
22665;SDS011;11499;49.486;11.104;2023-02-18T13:31:35;2.43;;;2.00;;
22665;SDS011;11499;49.486;11.104;2023-02-18T13:34:31;3.13;;;1.97;;
22665;SDS011;11499;49.486;11.104;2023-02-18T13:39:46;3.23;;;1.90;;
22665;SDS011;11499;49.486;11.104;2023-02-18T13:44:05;5.70;;;1.93;;
22665;SDS011;11499;49.486;11.104;2023-02-18T13:46:34;3.17;;;2.17;;
22665;SDS011;11499;49.486;11.104;2023-02-18T13:49:17;3.23;;;2.07;;
22665;SDS011;11499;49.486;11.104;2023-02-18T13:51:55;2.17;;;1.70;;
22665;SDS011;11499;49.486;11.104;2023-02-18T13:54:42;4.63;;;2.20;;
22665;SDS011;11499;49.486;11.104;2023-02-18T13:57:13;2.27;;;2.07;;
22665;SDS011;11499;49.486;11.104;2023-02-18T13:59:44;2.90;;;2.37;;
22665;SDS011;11499;49.486;11.104;2023-02-18T14:10:13;2.40;;;2.20;;
22665;SDS011;11499;49.486;11.104;2023-02-18T14:15:52;2.07;;;1.87;;
22665;SDS011;11499;49.486;11.104;2023-02-18T14:18:24;3.30;;;2.27;;
22665;SDS011;11499;49.486;11.104;2023-02-18T14:20:50;4.27;;;2.10;;
22665;SDS011;11499;49.486;11.104;2023-02-18T14:26:02;2.33;;;2.10;;
22665;SDS011;11499;49.486;11.104;2023-02-18T14:31:02;2.83;;;2.43;;
22665;SDS011;11499;49.486;11.104;2023-02-18T14:33:29;3.70;;;2.57;;
22665;SDS011;11499;49.486;11.104;2023-02-18T14:39:25;3.00;;;2.47;;
22665;SDS011;11499;49.486;11.104;2023-02-18T14:42:37;2.20;;;2.00;;
22665;SDS011;11499;49.486;11.104;2023-02-18T14:48:13;3.17;;;2.67;;
22665;SDS011;11499;49.486;11.104;2023-02-18T14:50:50;3.83;;;2.90;;
22665;SDS011;11499;49.486;11.104;2023-02-18T14:53:18;3.80;;;2.77;;
22665;SDS011;11499;49.486;11.104;2023-02-18T14:55:50;3.30;;;3.00;;
22665;SDS011;11499;49.486;11.104;2023-02-18T14:58:38;3.60;;;3.30;;
22665;SDS011;11499;49.486;11.104;2023-02-18T15:03:45;3.33;;;2.83;;
22665;SDS011;11499;49.486;11.104;2023-02-18T15:11:13;5.40;;;3.60;;
22665;SDS011;11499;49.486;11.104;2023-02-18T15:13:24;3.23;;;2.80;;
22665;SDS011;11499;49.486;11.104;2023-02-18T15:15:54;4.50;;;3.57;;
22665;SDS011;11499;49.486;11.104;2023-02-18T15:18:27;3.20;;;2.90;;
22665;SDS011;11499;49.486;11.104;2023-02-18T15:21:01;4.10;;;3.70;;
22665;SDS011;11499;49.486;11.104;2023-02-18T15:23:28;3.47;;;3.17;;
22665;SDS011;11499;49.486;11.104;2023-02-18T15:25:55;4.27;;;2.97;;
22665;SDS011;11499;49.486;11.104;2023-02-18T15:28:29;3.33;;;3.03;;
22665;SDS011;11499;49.486;11.104;2023-02-18T15:31:00;3.73;;;3.40;;
22665;SDS011;11499;49.486;11.104;2023-02-18T15:33:27;3.50;;;3.20;;
22665;SDS011;11499;49.486;11.104;2023-02-18T15:36:03;3.53;;;3.23;;
22665;SDS011;11499;49.486;11.104;2023-02-18T15:38:30;3.90;;;3.50;;
22665;SDS011;11499;49.486;11.104;2023-02-18T15:43:11;3.93;;;3.03;;
22665;SDS011;11499;49.486;11.104;2023-02-18T15:45:42;4.20;;;3.60;;
22665;SDS011;11499;49.486;11.104;2023-02-18T15:48:19;3.73;;;3.43;;
22665;SDS011;11499;49.486;11.104;2023-02-18T15:50:50;5.00;;;3.60;;
22665;SDS011;11499;49.486;11.104;2023-02-18T15:53:18;3.53;;;3.23;;
22665;SDS011;11499;49.486;11.104;2023-02-18T15:55:46;3.60;;;3.30;;
22665;SDS011;11499;49.486;11.104;2023-02-18T15:58:18;3.67;;;3.37;;
22665;SDS011;11499;49.486;11.104;2023-02-18T16:00:51;5.03;;;3.60;;
22665;SDS011;11499;49.486;11.104;2023-02-18T16:03:22;3.43;;;3.13;;
22665;SDS011;11499;49.486;11.104;2023-02-18T16:05:51;3.70;;;3.40;;
22665;SDS011;11499;49.486;11.104;2023-02-18T16:09:24;3.53;;;3.23;;
22665;SDS011;11499;49.486;11.104;2023-02-18T16:12:03;3.67;;;2.97;;
22665;SDS011;11499;49.486;11.104;2023-02-18T16:22:29;4.17;;;3.47;;
22665;SDS011;11499;49.486;11.104;2023-02-18T16:27:45;3.40;;;3.10;;
22665;SDS011;11499;49.486;11.104;2023-02-18T16:30:29;4.63;;;3.50;;
22665;SDS011;11499;49.486;11.104;2023-02-18T16:32:57;3.57;;;3.27;;
22665;SDS011;11499;49.486;11.104;2023-02-18T16:37:16;3.80;;;3.23;;
22665;SDS011;11499;49.486;11.104;2023-02-18T16:40:00;4.80;;;3.93;;
22665;SDS011;11499;49.486;11.104;2023-02-18T16:42:26;6.10;;;4.10;;
22665;SDS011;11499;49.486;11.104;2023-02-18T16:44:51;5.50;;;4.20;;
22665;SDS011;11499;49.486;11.104;2023-02-18T16:47:17;4.90;;;4.50;;
22665;SDS011;11499;49.486;11.104;2023-02-18T16:49:44;4.37;;;3.97;;
22665;SDS011;11499;49.486;11.104;2023-02-18T16:52:11;4.60;;;4.20;;
22665;SDS011;11499;49.486;11.104;2023-02-18T16:54:40;7.10;;;5.10;;
22665;SDS011;11499;49.486;11.104;2023-02-18T16:57:05;4.30;;;3.90;;
22665;SDS011;11499;49.486;11.104;2023-02-18T16:59:31;4.50;;;4.03;;
22665;SDS011;11499;49.486;11.104;2023-02-18T17:05:01;5.30;;;4.70;;
22665;SDS011;11499;49.486;11.104;2023-02-18T17:07:26;4.47;;;3.90;;
22665;SDS011;11499;49.486;11.104;2023-02-18T17:09:52;5.33;;;4.80;;
22665;SDS011;11499;49.486;11.104;2023-02-18T17:12:17;5.77;;;4.20;;
22665;SDS011;11499;49.486;11.104;2023-02-18T17:14:43;4.90;;;4.40;;
22665;SDS011;11499;49.486;11.104;2023-02-18T17:17:11;4.53;;;4.13;;
22665;SDS011;11499;49.486;11.104;2023-02-18T17:19:37;5.43;;;4.27;;
22665;SDS011;11499;49.486;11.104;2023-02-18T17:22:03;5.00;;;4.50;;
22665;SDS011;11499;49.486;11.104;2023-02-18T17:24:29;4.20;;;3.80;;
22665;SDS011;11499;49.486;11.104;2023-02-18T17:26:54;4.57;;;4.07;;
22665;SDS011;11499;49.486;11.104;2023-02-18T17:31:46;4.67;;;3.80;;
22665;SDS011;11499;49.486;11.104;2023-02-18T17:34:26;4.60;;;3.90;;
22665;SDS011;11499;49.486;11.104;2023-02-18T17:36:53;4.57;;;4.10;;
22665;SDS011;11499;49.486;11.104;2023-02-18T17:39:18;4.27;;;3.80;;
22665;SDS011;11499;49.486;11.104;2023-02-18T17:41:44;4.10;;;3.70;;
22665;SDS011;11499;49.486;11.104;2023-02-18T17:44:17;5.00;;;4.33;;
22665;SDS011;11499;49.486;11.104;2023-02-18T17:46:44;4.40;;;4.00;;
22665;SDS011;11499;49.486;11.104;2023-02-18T17:49:10;4.80;;;4.40;;
22665;SDS011;11499;49.486;11.104;2023-02-18T17:51:37;5.93;;;4.40;;
22665;SDS011;11499;49.486;11.104;2023-02-18T17:54:08;4.47;;;4.07;;
22665;SDS011;11499;49.486;11.104;2023-02-18T17:58:24;4.13;;;3.67;;
22665;SDS011;11499;49.486;11.104;2023-02-18T18:00:54;5.00;;;4.50;;
22665;SDS011;11499;49.486;11.104;2023-02-18T18:03:21;4.43;;;4.03;;
22665;SDS011;11499;49.486;11.104;2023-02-18T18:05:48;5.53;;;4.43;;
22665;SDS011;11499;49.486;11.104;2023-02-18T18:08:16;5.63;;;4.90;;
22665;SDS011;11499;49.486;11.104;2023-02-18T18:10:49;5.40;;;5.00;;
22665;SDS011;11499;49.486;11.104;2023-02-18T18:13:17;5.50;;;4.80;;